ENKR

Kirkenes , Høybuktmoen Airport

Kirkenes, Norway
METAR ENKR 170550Z AUTO 19010KT 8000 BKN003/// OVC005/// M09/M10 Q1000 RMK WIND 731FT 21015KT
Observed Flight Rules
Dec-17 @ 05:50 UTC (28 minutes ago) Instrument Flight Rules
Wind Visibility Clouds
190° at 10 knots 7,998 meters
  • Broken at 300' AGL
  • Overcast at 500' AGL
Temperatures Readings
Current -9°C / 16°F
Dewpoint -10°C / 14°F
Humidity 93%
Altimeter 29.53" Hg
Pressure 1000 hPa
Elevation 91
METAR ENKR 170550Z AUTO 19010KT 8000 BKN003/// OVC005/// M09/M10 Q1000 RMK WIND 731FT 21015KT
Observed Flight Rules
Dec-17 @ 05:50 UTC
(28 minutes ago)
LIFR
Wind Visibility
190° at 10 knots 7,998 meters
Clouds
  • Broken at 300' AGL
  • Overcast at 500' AGL
Temperature Dewpoint
-9°C / 16°F -10°C / 14°F
Humidity Altimeter Pressure
93% 29.53" Hg 1000 hPa